KCDH

Harrell Field Airport

Camden, Arkansas, USA
METAR KCDH 220035Z AUTO VRB04G11KT 4SM +RA OVC008 12/10 A3017 RMK AO2
Observed Flight Rules
Feb-22 @ 00:35 UTC (4 hours ago) Instrument Flight Rules
Wind Visibility Clouds Conditions
Variable at 4 knots
 Gusting to 11 knots
4 miles
  • Overcast at 800' AGL
  • Heavy Rain
Temperatures Readings
Current 12°C / 54°F
Dewpoint 10°C / 50°F
Humidity 88%
Altimeter 30.17" Hg
Pressure 1022 hPa
Elevation 35
METAR KCDH 220035Z AUTO VRB04G11KT 4SM +RA OVC008 12/10 A3017 RMK AO2
Observed Flight Rules
Feb-22 @ 00:35 UTC
(4 hours ago)
IFR
Wind Visibility
Variable at 4 knots
 Gusting to 11 knots
4 miles
Clouds
  • Overcast at 800' AGL
Conditions
  • Heavy Rain
Temperature Dewpoint
12°C / 54°F 10°C / 50°F
Humidity Altimeter Pressure
88% 30.17" Hg 1022 hPa